Time;durP1;ratioP1;P1;durP2;ratioP2;P2;SDS_P1;SDS_P2;PMS_P1;PMS_P2;Temp;Humidity;BMP_temperature;BMP_pressure;BME280_temperature;BME280_humidity;BME280_pressure;Samples;Min_cycle;Max_cycle;Signal;HPM_P1;HPM_P2
2022/08/29 00:02:08;;;;;;;0.40;0.40;;;14.10;99.90;;;;;;5132486;28;20447;-66
2022/08/29 00:04:59;;;;;;;0.40;0.40;;;14.10;99.90;;;;;;5133446;28;20425;-66
2022/08/29 00:07:47;;;;;;;0.40;0.40;;;14.00;99.90;;;;;;5133455;28;20443;-67
2022/08/29 00:10:38;;;;;;;0.40;0.40;;;14.00;99.90;;;;;;5132367;28;20505;-65
2022/08/29 00:13:26;;;;;;;0.40;0.40;;;14.10;99.90;;;;;;5133184;28;20428;-66
2022/08/29 00:16:14;;;;;;;0.40;0.40;;;13.80;99.90;;;;;;5132627;28;20451;-65
2022/08/29 00:19:03;;;;;;;0.50;0.50;;;13.80;99.90;;;;;;5132208;28;20423;-66
2022/08/29 00:21:52;;;;;;;0.40;0.40;;;13.90;99.90;;;;;;5134669;27;20939;-66
2022/08/29 00:24:40;;;;;;;0.40;0.40;;;13.60;99.90;;;;;;5136609;27;20423;-66
2022/08/29 00:27:28;;;;;;;0.40;0.40;;;13.70;99.90;;;;;;5137173;27;20432;-66
2022/08/29 00:30:18;;;;;;;0.50;0.50;;;13.70;99.90;;;;;;5137250;27;20870;-66
2022/08/29 00:33:06;;;;;;;0.40;0.40;;;13.60;99.90;;;;;;5136825;27;20729;-67
2022/08/29 00:35:55;;;;;;;0.40;0.40;;;13.60;99.90;;;;;;5136371;27;20511;-68
2022/08/29 00:38:45;;;;;;;0.40;0.40;;;13.60;99.90;;;;;;5136696;27;20412;-67
2022/08/29 00:41:33;;;;;;;0.40;0.40;;;13.60;99.90;;;;;;5135876;27;20955;-66
2022/08/29 00:44:21;;;;;;;0.40;0.40;;;13.50;99.90;;;;;;5137584;27;20417;-67
2022/08/29 00:47:12;;;;;;;0.50;0.50;;;13.50;99.90;;;;;;5137175;27;20445;-66
2022/08/29 00:50:02;;;;;;;0.40;0.40;;;13.60;99.90;;;;;;5135679;27;20881;-65
2022/08/29 00:52:53;;;;;;;0.40;0.40;;;13.70;99.90;;;;;;5135995;27;20421;-66
2022/08/29 00:55:45;;;;;;;0.40;0.40;;;13.50;99.90;;;;;;5136369;27;20469;-66
2022/08/29 00:58:45;;;;;;;0.40;0.40;;;13.50;99.90;;;;;;5135483;27;20436;-66
2022/08/29 01:01:33;;;;;;;0.40;0.40;;;13.40;99.90;;;;;;5136163;27;20428;-67
2022/08/29 01:04:21;;;;;;;0.40;0.40;;;13.30;99.90;;;;;;5135611;27;20951;-67
2022/08/29 01:07:11;;;;;;;0.40;0.40;;;13.40;99.90;;;;;;5136682;27;20474;-66
2022/08/29 01:09:59;;;;;;;0.50;0.50;;;13.30;99.90;;;;;;5136257;27;20467;-66
2022/08/29 01:13:01;;;;;;;0.40;0.40;;;13.20;99.90;;;;;;5135831;27;20417;-66
2022/08/29 01:15:49;;;;;;;0.40;0.40;;;13.30;99.90;;;;;;5135504;27;20428;-67
2022/08/29 01:18:41;;;;;;;0.40;0.40;;;13.40;99.90;;;;;;5135043;27;20509;-66
2022/08/29 01:21:36;;;;;;;0.40;0.40;;;13.20;99.90;;;;;;5135074;27;20762;-68
2022/08/29 01:24:36;;;;;;;0.40;0.40;;;13.20;99.90;;;;;;5136666;27;20416;-66
2022/08/29 01:27:29;;;;;;;0.40;0.40;;;13.30;99.90;;;;;;5125494;27;20473;-66
2022/08/29 01:30:17;;;;;;;0.40;0.40;;;13.10;99.90;;;;;;5114871;28;20413;-68
2022/08/29 01:33:05;;;;;;;0.70;0.70;;;13.20;99.90;;;;;;5113889;27;20466;-66
2022/08/29 01:35:56;;;;;;;0.60;0.60;;;13.20;99.90;;;;;;5134828;27;20963;-66
2022/08/29 01:38:45;;;;;;;0.40;0.40;;;13.10;99.90;;;;;;5134773;27;20451;-67
2022/08/29 01:41:34;;;;;;;0.83;0.83;;;13.10;99.90;;;;;;5134803;27;20483;-66
2022/08/29 01:44:24;;;;;;;0.93;0.93;;;13.10;99.90;;;;;;5135175;27;20458;-65
2022/08/29 01:47:12;;;;;;;0.40;0.40;;;13.10;99.90;;;;;;5134651;27;20444;-66
2022/08/29 01:50:05;;;;;;;1.27;0.90;;;13.10;99.90;;;;;;5135056;27;20458;-67
2022/08/29 01:52:53;;;;;;;0.40;0.40;;;13.00;99.90;;;;;;5135085;27;20795;-67
2022/08/29 01:55:41;;;;;;;0.40;0.40;;;13.00;99.90;;;;;;5134987;27;21197;-66
2022/08/29 01:58:30;;;;;;;0.50;0.47;;;13.00;99.90;;;;;;5134466;27;20432;-68
2022/08/29 02:01:22;;;;;;;0.40;0.40;;;12.90;99.90;;;;;;5134764;27;20527;-66
2022/08/29 02:04:12;;;;;;;0.40;0.40;;;12.90;99.90;;;;;;5134142;27;20436;-66
2022/08/29 02:07:00;;;;;;;0.50;0.50;;;12.90;99.90;;;;;;5134605;27;20464;-67
2022/08/29 02:09:48;;;;;;;0.40;0.40;;;12.90;99.90;;;;;;5134533;27;20458;-68
2022/08/29 02:12:36;;;;;;;0.40;0.40;;;12.90;99.90;;;;;;5133964;27;20470;-68
2022/08/29 02:15:26;;;;;;;0.40;0.40;;;12.80;99.90;;;;;;5134619;27;20424;-67
2022/08/29 02:18:14;;;;;;;0.40;0.40;;;12.80;99.90;;;;;;5134052;27;20448;-66
2022/08/29 02:21:03;;;;;;;0.40;0.40;;;12.90;99.90;;;;;;5133953;27;20494;-67
2022/08/29 02:23:52;;;;;;;0.43;0.43;;;12.80;99.90;;;;;;5134057;27;20936;-66
2022/08/29 02:26:40;;;;;;;0.60;0.60;;;12.80;99.90;;;;;;5134158;27;20441;-67
2022/08/29 02:29:28;;;;;;;0.50;0.50;;;12.80;99.90;;;;;;5134190;27;20925;-66
2022/08/29 02:32:25;;;;;;;0.80;0.80;;;12.80;99.90;;;;;;5133783;27;20503;-67
2022/08/29 02:35:14;;;;;;;0.40;0.40;;;12.80;99.90;;;;;;5134208;27;20465;-67
2022/08/29 02:38:04;;;;;;;0.40;0.40;;;12.80;99.90;;;;;;5133475;27;20433;-66
2022/08/29 02:40:53;;;;;;;0.40;0.40;;;12.80;99.90;;;;;;5133539;27;20492;-67
2022/08/29 02:43:41;;;;;;;0.40;0.40;;;12.70;99.90;;;;;;5132645;27;20428;-67
2022/08/29 02:46:29;;;;;;;0.77;0.77;;;12.70;99.90;;;;;;5133762;27;20417;-69
2022/08/29 02:49:18;;;;;;;0.50;0.50;;;12.60;99.90;;;;;;5133652;27;20421;-69
2022/08/29 02:52:09;;;;;;;0.60;0.60;;;12.70;99.90;;;;;;5133330;27;20867;-67
2022/08/29 02:54:57;;;;;;;0.40;0.40;;;12.60;99.90;;;;;;5134245;27;20509;-67
2022/08/29 02:57:45;;;;;;;0.40;0.40;;;12.60;99.90;;;;;;5133158;27;20485;-66
2022/08/29 03:00:34;;;;;;;0.50;0.50;;;12.50;99.90;;;;;;5132998;27;20449;-66
2022/08/29 03:03:22;;;;;;;0.40;0.40;;;12.50;99.90;;;;;;5132912;27;20427;-66
2022/08/29 03:06:13;;;;;;;0.40;0.40;;;12.50;99.90;;;;;;5133569;27;20798;-67
2022/08/29 03:09:01;;;;;;;0.60;0.60;;;12.50;99.90;;;;;;5133400;27;20417;-67
2022/08/29 03:11:51;;;;;;;0.40;0.40;;;12.50;99.90;;;;;;5133090;27;20421;-67
2022/08/29 03:14:39;;;;;;;0.40;0.40;;;12.50;99.90;;;;;;5133335;27;20908;-67
2022/08/29 03:17:28;;;;;;;0.40;0.40;;;12.50;99.90;;;;;;5133588;27;20830;-67
2022/08/29 03:20:19;;;;;;;0.60;0.60;;;12.40;99.90;;;;;;5132301;27;20464;-67
2022/08/29 03:23:09;;;;;;;0.60;0.60;;;12.40;99.90;;;;;;5133115;27;20466;-68
2022/08/29 03:25:57;;;;;;;0.40;0.40;;;12.40;99.90;;;;;;5133449;27;20459;-68
2022/08/29 03:28:45;;;;;;;0.50;0.50;;;12.40;99.90;;;;;;5133549;27;20465;-68
2022/08/29 03:31:34;;;;;;;0.40;0.40;;;12.40;99.90;;;;;;5132693;27;20417;-67
2022/08/29 03:34:22;;;;;;;0.40;0.40;;;12.40;99.90;;;;;;5132811;27;20455;-65
2022/08/29 03:37:10;;;;;;;0.40;0.40;;;12.30;99.90;;;;;;5133925;27;20860;-67
2022/08/29 03:40:00;;;;;;;0.40;0.40;;;12.30;99.90;;;;;;5133785;27;20420;-67
2022/08/29 03:42:49;;;;;;;0.40;0.40;;;12.90;99.90;;;;;;5133943;27;20440;-66
2022/08/29 03:45:37;;;;;;;0.40;0.40;;;12.30;99.90;;;;;;5133820;27;20421;-67
2022/08/29 03:48:25;;;;;;;0.40;0.40;;;12.30;99.90;;;;;;5133366;27;20440;-67
2022/08/29 03:51:13;;;;;;;0.40;0.40;;;12.30;99.90;;;;;;5133307;27;20484;-67
2022/08/29 03:54:01;;;;;;;0.40;0.40;;;12.30;99.90;;;;;;5138498;27;20424;-66
2022/08/29 03:56:51;;;;;;;0.50;0.50;;;12.30;99.90;;;;;;5151150;27;20447;-67
2022/08/29 03:59:39;;;;;;;0.40;0.40;;;12.30;99.90;;;;;;5151440;28;20416;-66
2022/08/29 04:02:27;;;;;;;0.40;0.40;;;12.30;99.90;;;;;;5152965;28;20453;-67
2022/08/29 04:05:17;;;;;;;0.40;0.40;;;12.30;99.90;;;;;;5152274;28;20792;-67
2022/08/29 04:08:06;;;;;;;0.40;0.40;;;12.20;99.90;;;;;;5152336;28;20460;-66
2022/08/29 04:10:54;;;;;;;0.40;0.40;;;12.20;99.90;;;;;;5152826;28;20484;-66
2022/08/29 04:13:43;;;;;;;0.40;0.40;;;12.20;99.90;;;;;;5153239;28;20432;-67
2022/08/29 04:16:32;;;;;;;0.40;0.40;;;12.10;99.90;;;;;;5151146;27;20421;-65
2022/08/29 04:19:21;;;;;;;0.50;0.50;;;12.10;99.90;;;;;;5149531;28;20428;-66
2022/08/29 04:22:09;;;;;;;0.40;0.40;;;12.10;99.90;;;;;;5145116;28;20514;-66
2022/08/29 04:24:57;;;;;;;0.47;0.47;;;12.10;99.90;;;;;;5147954;28;20446;-66
2022/08/29 04:27:46;;;;;;;7.27;0.60;;;12.10;99.90;;;;;;5147373;28;20482;-66
2022/08/29 04:30:37;;;;;;;0.40;0.40;;;12.10;99.90;;;;;;5144611;28;20429;-67
2022/08/29 04:33:26;;;;;;;0.40;0.40;;;12.20;99.90;;;;;;5133264;28;20936;-66
2022/08/29 04:36:14;;;;;;;0.40;0.40;;;12.30;99.90;;;;;;5135064;28;20424;-67
2022/08/29 04:39:05;;;;;;;0.50;0.50;;;12.20;99.90;;;;;;5133402;28;20824;-66
2022/08/29 04:41:53;;;;;;;0.60;0.60;;;12.20;99.90;;;;;;5133001;28;20983;-66
2022/08/29 04:44:41;;;;;;;0.50;0.50;;;12.30;99.90;;;;;;5132969;28;21033;-68
2022/08/29 04:47:30;;;;;;;0.43;0.43;;;12.50;99.90;;;;;;5133025;28;20440;-67
2022/08/29 04:50:22;;;;;;;0.40;0.40;;;12.70;99.90;;;;;;5132463;28;20962;-67
2022/08/29 04:53:10;;;;;;;0.40;0.40;;;12.90;99.90;;;;;;5132468;28;20423;-69
2022/08/29 04:56:00;;;;;;;0.50;0.50;;;13.00;99.90;;;;;;5132568;28;20473;-68
2022/08/29 04:58:50;;;;;;;0.50;0.50;;;13.10;99.90;;;;;;5131698;28;20417;-68
2022/08/29 05:01:38;;;;;;;0.40;0.40;;;13.20;99.90;;;;;;5132035;28;20456;-66
2022/08/29 05:04:30;;;;;;;0.50;0.50;;;13.30;99.90;;;;;;5131454;28;20462;-66
2022/08/29 05:07:20;;;;;;;0.40;0.40;;;13.40;99.90;;;;;;5132670;27;20436;-67
2022/08/29 05:10:11;;;;;;;0.40;0.40;;;13.40;99.90;;;;;;5135837;27;20448;-68
2022/08/29 05:12:59;;;;;;;0.40;0.40;;;13.50;99.90;;;;;;5136162;27;20435;-67
2022/08/29 05:15:47;;;;;;;0.40;0.40;;;13.60;99.90;;;;;;5136119;27;20947;-70
2022/08/29 05:18:37;;;;;;;0.40;0.40;;;13.70;99.90;;;;;;5136605;27;20452;-67
2022/08/29 05:21:30;;;;;;;0.40;0.40;;;13.80;99.90;;;;;;5136126;27;20459;-66
2022/08/29 05:24:22;;;;;;;0.40;0.40;;;13.90;99.90;;;;;;5135774;27;20546;-67
2022/08/29 05:27:15;;;;;;;0.50;0.50;;;14.00;99.90;;;;;;5135688;27;20445;-66
2022/08/29 05:30:04;;;;;;;0.40;0.40;;;14.00;99.90;;;;;;5135629;27;20448;-68
2022/08/29 05:32:53;;;;;;;0.40;0.40;;;14.10;99.90;;;;;;5134919;27;20416;-68
2022/08/29 05:35:41;;;;;;;0.40;0.40;;;14.20;99.90;;;;;;5136567;27;20461;-66
2022/08/29 05:38:31;;;;;;;0.40;0.40;;;14.30;99.90;;;;;;5136298;27;20460;-69
2022/08/29 05:41:19;;;;;;;0.40;0.40;;;14.40;99.90;;;;;;5133283;27;20525;-66
2022/08/29 05:44:07;;;;;;;0.40;0.40;;;14.50;99.90;;;;;;5136553;27;20425;-67
2022/08/29 05:46:55;;;;;;;0.50;0.50;;;14.50;99.90;;;;;;5134982;27;20509;-66
2022/08/29 05:49:44;;;;;;;0.40;0.40;;;14.60;99.90;;;;;;5135814;27;20428;-67
2022/08/29 05:52:33;;;;;;;3.13;0.90;;;14.60;99.90;;;;;;5135221;27;21009;-67
2022/08/29 05:55:23;;;;;;;0.40;0.40;;;14.70;99.90;;;;;;5135179;27;20425;-66
2022/08/29 05:58:12;;;;;;;0.97;0.90;;;14.80;99.90;;;;;;5135592;27;20444;-67
2022/08/29 06:01:00;;;;;;;0.70;0.70;;;14.90;99.90;;;;;;5132394;27;20433;-66
2022/08/29 06:03:49;;;;;;;0.40;0.40;;;15.00;99.90;;;;;;5115350;28;20417;-67
2022/08/29 06:06:40;;;;;;;0.50;0.50;;;15.00;99.90;;;;;;5115196;28;20540;-66
2022/08/29 06:09:28;;;;;;;0.50;0.50;;;15.10;99.90;;;;;;5115437;28;20499;-66
2022/08/29 06:12:18;;;;;;;0.40;0.40;;;15.20;99.90;;;;;;5115497;28;20996;-66
2022/08/29 06:15:07;;;;;;;0.40;0.40;;;15.20;99.90;;;;;;5114896;28;20440;-70
2022/08/29 06:17:55;;;;;;;0.40;0.40;;;15.40;99.90;;;;;;5114755;28;20890;-68
2022/08/29 06:20:43;;;;;;;0.40;0.40;;;15.50;99.90;;;;;;5114179;28;20425;-67
2022/08/29 06:23:32;;;;;;;0.40;0.40;;;15.70;99.90;;;;;;5114641;28;20456;-69
2022/08/29 06:26:20;;;;;;;0.50;0.50;;;15.60;99.90;;;;;;5115499;28;20426;-66
2022/08/29 06:29:10;;;;;;;0.50;0.50;;;15.60;99.90;;;;;;5115097;28;20802;-66
2022/08/29 06:31:59;;;;;;;1.20;1.20;;;15.50;99.90;;;;;;5115171;28;20450;-65
2022/08/29 06:34:48;;;;;;;0.90;0.90;;;15.50;99.90;;;;;;5115316;28;20417;-66
2022/08/29 06:37:36;;;;;;;0.40;0.40;;;15.60;99.90;;;;;;5114974;28;21059;-67
2022/08/29 06:40:24;;;;;;;0.80;0.80;;;15.60;99.90;;;;;;5114821;28;20831;-66
2022/08/29 06:43:12;;;;;;;0.40;0.40;;;15.60;99.90;;;;;;5114483;28;21099;-70
2022/08/29 06:46:02;;;;;;;0.40;0.40;;;15.60;99.90;;;;;;5114857;28;20819;-66
2022/08/29 06:48:51;;;;;;;0.40;0.40;;;15.60;99.90;;;;;;5114211;28;20432;-67
2022/08/29 06:51:41;;;;;;;0.70;0.70;;;15.60;99.90;;;;;;5114370;28;20421;-66
2022/08/29 06:54:29;;;;;;;1.27;0.70;;;15.60;99.90;;;;;;5113842;28;20456;-67
2022/08/29 06:57:17;;;;;;;0.40;0.40;;;15.70;99.90;;;;;;5114017;28;20976;-66
2022/08/29 07:00:09;;;;;;;0.40;0.40;;;15.70;99.90;;;;;;5114053;28;20436;-66
2022/08/29 07:03:10;;;;;;;0.40;0.40;;;15.70;99.90;;;;;;5113882;28;20452;-66
2022/08/29 07:05:58;;;;;;;0.40;0.40;;;15.70;99.90;;;;;;5114066;28;20933;-66
2022/08/29 07:08:47;;;;;;;1.23;1.23;;;15.80;99.90;;;;;;5114473;28;20417;-66
2022/08/29 07:11:43;;;;;;;0.40;0.40;;;15.70;99.90;;;;;;5113627;28;20419;-68
2022/08/29 07:14:31;;;;;;;2.10;1.53;;;15.70;99.90;;;;;;5114220;28;20418;-67
2022/08/29 07:17:19;;;;;;;0.93;0.93;;;15.70;99.90;;;;;;5113814;28;20530;-67
2022/08/29 07:20:14;;;;;;;0.53;0.53;;;15.90;99.90;;;;;;5113316;28;20425;-66
2022/08/29 07:23:02;;;;;;;0.40;0.40;;;16.00;99.90;;;;;;5114178;28;20502;-67
2022/08/29 07:25:50;;;;;;;0.40;0.40;;;16.00;99.90;;;;;;5114334;28;20436;-66
2022/08/29 07:28:38;;;;;;;0.40;0.40;;;16.10;99.90;;;;;;5113908;28;21042;-68
2022/08/29 07:31:33;;;;;;;0.40;0.40;;;16.10;99.90;;;;;;5113157;28;20313;-67
2022/08/29 07:34:21;;;;;;;0.40;0.40;;;16.10;99.90;;;;;;5127163;27;20191;-70
2022/08/29 07:37:11;;;;;;;0.40;0.40;;;16.30;99.90;;;;;;5113847;27;20707;-67
2022/08/29 07:39:59;;;;;;;0.40;0.40;;;16.40;99.90;;;;;;5121447;27;20451;-68
2022/08/29 07:42:48;;;;;;;0.40;0.40;;;16.60;99.90;;;;;;5129594;27;20594;-69
2022/08/29 07:45:38;;;;;;;0.50;0.40;;;16.80;99.90;;;;;;5131309;27;20307;-67
2022/08/29 07:48:26;;;;;;;0.70;0.70;;;16.90;99.90;;;;;;5129560;27;20458;-68
2022/08/29 07:51:17;;;;;;;0.40;0.40;;;17.00;99.90;;;;;;5129766;27;20205;-69
2022/08/29 07:54:06;;;;;;;0.40;0.40;;;17.10;99.90;;;;;;5130269;27;20417;-68
2022/08/29 07:56:56;;;;;;;0.70;0.70;;;17.20;99.90;;;;;;5131328;27;20979;-67
2022/08/29 07:59:44;;;;;;;0.90;0.90;;;17.30;99.90;;;;;;5132285;28;20190;-67
2022/08/29 08:02:32;;;;;;;0.40;0.40;;;17.40;99.90;;;;;;5132282;28;20457;-67
2022/08/29 08:05:20;;;;;;;0.40;0.40;;;17.50;99.90;;;;;;5132515;28;20205;-70
2022/08/29 08:08:09;;;;;;;0.60;0.60;;;17.60;99.90;;;;;;5133641;28;20210;-67
2022/08/29 08:11:05;;;;;;;0.50;0.50;;;17.80;99.90;;;;;;5132016;28;20201;-67
2022/08/29 08:13:55;;;;;;;0.40;0.40;;;17.90;99.90;;;;;;5130062;28;20206;-66
2022/08/29 08:16:43;;;;;;;0.40;0.40;;;18.00;99.90;;;;;;5130848;28;20722;-66
2022/08/29 08:19:32;;;;;;;0.80;0.70;;;18.20;99.90;;;;;;5131237;28;20277;-67
2022/08/29 08:22:20;;;;;;;0.40;0.40;;;18.30;99.90;;;;;;5130958;28;20195;-66
2022/08/29 08:25:09;;;;;;;1.00;0.80;;;18.20;99.90;;;;;;5131108;28;20675;-69
2022/08/29 08:27:58;;;;;;;0.40;0.40;;;18.10;99.90;;;;;;5129264;28;20210;-67
2022/08/29 08:30:46;;;;;;;0.40;0.40;;;18.00;99.90;;;;;;5130717;28;20199;-67
2022/08/29 08:33:37;;;;;;;0.75;0.75;;;18.20;99.90;;;;;;5130014;28;20210;-67
2022/08/29 08:36:28;;;;;;;0.85;0.63;;;18.30;99.90;;;;;;5130548;28;20686;-68
2022/08/29 08:39:17;;;;;;;0.50;0.50;;;18.70;99.90;;;;;;5129340;28;20697;-67
2022/08/29 08:42:13;;;;;;;0.60;0.60;;;18.70;99.90;;;;;;5131319;27;20679;-67
2022/08/29 08:45:07;;;;;;;0.40;0.40;;;18.70;99.90;;;;;;5134276;27;20190;-66
2022/08/29 08:48:02;;;;;;;0.40;0.40;;;18.80;99.90;;;;;;5133438;27;20307;-65
2022/08/29 08:50:56;;;;;;;0.40;0.40;;;19.00;99.90;;;;;;5133366;27;20211;-65
2022/08/29 08:53:48;;;;;;;0.40;0.40;;;19.00;99.90;;;;;;5135973;27;20195;-66
2022/08/29 08:56:41;;;;;;;0.40;0.40;;;19.10;99.90;;;;;;5133774;27;20205;-66
2022/08/29 08:59:38;;;;;;;0.60;0.55;;;19.10;99.90;;;;;;5135119;27;20202;-70
2022/08/29 09:02:34;;;;;;;0.40;0.40;;;19.10;99.90;;;;;;5136057;27;20263;-67
2022/08/29 09:05:38;;;;;;;0.55;0.55;;;19.10;99.90;;;;;;5136584;27;20195;-66
2022/08/29 09:08:36;;;;;;;0.50;0.50;;;19.00;99.90;;;;;;5135461;27;20218;-67
2022/08/29 09:11:32;;;;;;;1.05;0.75;;;18.80;99.90;;;;;;5133873;27;20238;-66
2022/08/29 09:14:39;;;;;;;0.40;0.40;;;18.70;99.90;;;;;;5133386;27;20244;-67
2022/08/29 09:17:35;;;;;;;0.40;0.40;;;18.70;99.90;;;;;;5132510;27;20233;-66
2022/08/29 09:20:27;;;;;;;0.40;0.40;;;18.90;99.90;;;;;;5134517;27;20194;-66
2022/08/29 09:23:21;;;;;;;0.50;0.50;;;19.20;99.90;;;;;;5135738;27;20237;-67
2022/08/29 09:26:10;;;;;;;3.90;0.60;;;19.30;99.90;;;;;;5135844;27;20198;-67
2022/08/29 09:28:58;;;;;;;0.40;0.40;;;19.60;99.90;;;;;;5135735;27;20228;-67
2022/08/29 09:32:02;;;;;;;1.40;1.05;;;19.70;99.90;;;;;;5134827;27;20230;-68
2022/08/29 09:34:52;;;;;;;0.40;0.40;;;19.80;99.90;;;;;;5114682;28;20199;-68
2022/08/29 09:38:03;;;;;;;0.63;0.63;;;20.00;99.90;;;;;;5113767;28;20219;-66
2022/08/29 09:40:55;;;;;;;0.68;0.68;;;19.90;99.90;;;;;;5116490;27;20769;-67
2022/08/29 09:43:48;;;;;;;0.40;0.40;;;20.00;99.90;;;;;;5134799;27;20214;-67
2022/08/29 09:46:37;;;;;;;0.40;0.40;;;19.80;99.90;;;;;;5134247;27;20735;-67
2022/08/29 09:49:25;;;;;;;0.50;0.50;;;19.80;99.90;;;;;;5131567;27;20202;-66
2022/08/29 09:52:23;;;;;;;0.40;0.40;;;19.80;99.90;;;;;;5136041;27;20256;-68
2022/08/29 09:55:28;;;;;;;0.50;0.50;;;19.80;99.90;;;;;;5132763;27;20247;-67
2022/08/29 09:58:30;;;;;;;0.80;0.80;;;19.90;99.90;;;;;;5135338;27;20214;-67
2022/08/29 10:01:21;;;;;;;0.60;0.60;;;19.70;99.90;;;;;;5134819;27;20562;-66
2022/08/29 10:04:37;;;;;;;0.50;0.50;;;19.40;99.90;;;;;;5134659;27;20229;-66
2022/08/29 10:07:29;;;;;;;0.40;0.40;;;19.40;99.90;;;;;;5134995;27;20218;-67
2022/08/29 10:10:19;;;;;;;0.40;0.40;;;19.40;99.90;;;;;;5135034;27;20579;-67
2022/08/29 10:13:14;;;;;;;0.40;0.40;;;19.50;99.90;;;;;;5135336;27;20202;-66
2022/08/29 10:16:12;;;;;;;1.35;0.60;;;19.70;99.90;;;;;;5134891;27;20279;-65
2022/08/29 10:19:03;;;;;;;5.43;1.90;;;19.90;99.90;;;;;;5134529;27;20199;-66
2022/08/29 10:22:00;;;;;;;0.55;0.50;;;19.90;99.90;;;;;;5134670;27;20573;-66
2022/08/29 10:25:00;;;;;;;1.58;0.93;;;19.80;99.90;;;;;;5134697;27;20260;-65
2022/08/29 10:27:54;;;;;;;0.40;0.40;;;19.80;99.90;;;;;;5134250;27;20214;-65
2022/08/29 10:30:54;;;;;;;0.40;0.40;;;19.80;99.90;;;;;;5131925;27;20202;-65
2022/08/29 10:33:57;;;;;;;0.40;0.40;;;20.00;99.90;;;;;;5131582;27;20727;-67
2022/08/29 10:36:54;;;;;;;0.40;0.40;;;20.30;99.90;;;;;;5131735;27;20214;-67
2022/08/29 10:39:50;;;;;;;0.40;0.40;;;20.90;99.90;;;;;;5133659;27;20226;-66
2022/08/29 10:42:42;;;;;;;0.80;0.80;;;21.30;99.90;;;;;;5118822;27;20328;-67
2022/08/29 10:45:50;;;;;;;0.60;0.55;;;21.20;99.90;;;;;;5133410;27;20214;-68
2022/08/29 10:48:50;;;;;;;0.40;0.40;;;21.00;99.90;;;;;;5134210;27;20303;-67
2022/08/29 10:51:45;;;;;;;0.70;0.70;;;20.80;99.90;;;;;;5134066;27;20203;-69
2022/08/29 10:54:50;;;;;;;1.45;1.40;;;20.70;99.90;;;;;;5132827;27;20199;-69
2022/08/29 10:57:49;;;;;;;1.40;0.85;;;20.80;99.90;;;;;;5132925;27;20226;-68
2022/08/29 11:00:42;;;;;;;0.50;0.50;;;20.80;99.90;;;;;;5132989;27;20194;-67
2022/08/29 11:03:38;;;;;;;0.98;0.93;;;20.60;99.90;;;;;;5133013;27;20194;-67
2022/08/29 11:06:31;;;;;;;0.50;0.50;;;20.60;99.90;;;;;;5132877;27;20205;-67
2022/08/29 11:09:24;;;;;;;0.40;0.40;;;20.60;99.90;;;;;;5132734;27;20206;-67
2022/08/29 11:12:18;;;;;;;3.15;2.65;;;20.50;99.90;;;;;;5132705;27;20671;-67
2022/08/29 11:15:17;;;;;;;0.40;0.40;;;20.50;99.90;;;;;;5131524;27;20725;-67
2022/08/29 11:18:11;;;;;;;0.77;0.75;;;20.60;99.90;;;;;;5132730;27;20225;-67
2022/08/29 11:21:13;;;;;;;0.68;0.68;;;20.70;99.90;;;;;;5132548;27;20195;-68
2022/08/29 11:24:04;;;;;;;2.45;2.33;;;20.90;99.90;;;;;;5133789;27;20202;-66
2022/08/29 11:27:01;;;;;;;2.38;1.40;;;21.00;99.90;;;;;;5132336;27;20215;-67
2022/08/29 11:29:57;;;;;;;0.50;0.50;;;21.10;99.90;;;;;;5129529;27;20206;-68
2022/08/29 11:33:03;;;;;;;0.40;0.40;;;21.30;99.90;;;;;;5133435;27;20218;-66
2022/08/29 11:36:14;;;;;;;0.40;0.40;;;21.50;99.90;;;;;;5133513;27;20235;-67
2022/08/29 11:39:33;;;;;;;0.40;0.40;;;21.70;99.90;;;;;;5134666;27;20198;-66
2022/08/29 11:42:27;;;;;;;0.40;0.40;;;22.10;99.90;;;;;;5133980;27;20199;-65
2022/08/29 11:45:38;;;;;;;0.40;0.40;;;22.40;99.90;;;;;;5132030;27;20226;-68
2022/08/29 11:48:34;;;;;;;0.70;0.70;;;22.80;99.90;;;;;;5133714;27;20307;-65
2022/08/29 11:51:36;;;;;;;0.40;0.40;;;23.10;99.90;;;;;;5134149;27;20332;-67
2022/08/29 11:54:48;;;;;;;0.40;0.40;;;22.90;99.90;;;;;;5133104;27;20194;-67
2022/08/29 11:57:45;;;;;;;0.45;0.45;;;23.10;99.90;;;;;;5133046;27;20214;-65
2022/08/29 12:00:51;;;;;;;0.80;0.80;;;23.20;99.90;;;;;;5132015;27;20605;-66
2022/08/29 12:03:45;;;;;;;0.40;0.40;;;23.20;99.90;;;;;;5132107;28;20198;-65
2022/08/29 12:06:42;;;;;;;0.50;0.50;;;23.20;99.90;;;;;;5134546;28;20202;-66
2022/08/29 12:09:49;;;;;;;0.88;0.50;;;23.30;99.90;;;;;;5133968;28;20347;-65
2022/08/29 12:12:47;;;;;;;0.50;0.50;;;23.60;99.90;;;;;;5133529;28;20198;-66
2022/08/29 12:15:53;;;;;;;0.40;0.40;;;24.00;99.90;;;;;;5133025;28;20195;-65
2022/08/29 12:18:46;;;;;;;0.50;0.50;;;24.40;99.90;;;;;;5137196;27;20650;-65
2022/08/29 12:21:44;;;;;;;0.40;0.40;;;24.60;99.90;;;;;;5138102;27;20195;-66
2022/08/29 12:24:40;;;;;;;0.60;0.50;;;24.60;99.90;;;;;;5124951;27;20206;-66
2022/08/29 12:27:59;;;;;;;1.50;1.10;;;24.40;99.90;;;;;;5136368;27;20287;-66
2022/08/29 12:30:49;;;;;;;1.60;1.35;;;24.20;99.90;;;;;;5137455;27;20670;-66
2022/08/29 12:33:53;;;;;;;0.50;0.50;;;23.70;99.90;;;;;;5135357;27;20593;-66
2022/08/29 12:36:56;;;;;;;0.40;0.40;;;23.70;99.90;;;;;;5137281;27;20221;-67
2022/08/29 12:40:01;;;;;;;0.40;0.40;;;23.70;99.90;;;;;;5127940;27;20918;-65
2022/08/29 12:43:09;;;;;;;1.30;0.80;;;23.70;99.90;;;;;;5137969;27;20690;-66
2022/08/29 12:45:58;;;;;;;1.83;1.27;;;23.40;99.90;;;;;;5137350;27;20759;-66
2022/08/29 12:48:53;;;;;;;0.60;0.60;;;23.40;99.90;;;;;;5137914;27;20309;-64
2022/08/29 12:51:50;;;;;;;0.50;0.50;;;23.30;99.90;;;;;;5136662;27;20202;-66
2022/08/29 12:54:41;;;;;;;1.13;0.85;;;23.40;99.90;;;;;;5136722;27;20679;-66
2022/08/29 12:57:35;;;;;;;4.90;4.53;;;23.90;99.90;;;;;;5135070;27;20218;-65
2022/08/29 13:00:26;;;;;;;0.40;0.40;;;24.30;99.90;;;;;;5136570;27;20705;-65
2022/08/29 13:03:18;;;;;;;0.60;0.60;;;24.70;99.90;;;;;;5137633;27;20277;-65
2022/08/29 13:06:13;;;;;;;0.85;0.85;;;25.30;99.90;;;;;;5137949;27;20206;-65
2022/08/29 13:09:03;;;;;;;7.63;1.90;;;25.40;99.90;;;;;;5136301;27;20272;-66
2022/08/29 13:12:07;;;;;;;0.73;0.73;;;25.80;99.90;;;;;;5135913;27;20243;-65
2022/08/29 13:14:59;;;;;;;1.98;1.88;;;26.40;99.90;;;;;;5135780;27;20202;-65
2022/08/29 13:17:49;;;;;;;0.68;0.55;;;26.60;99.90;;;;;;5136453;27;20230;-66
2022/08/29 13:20:48;;;;;;;0.50;0.50;;;26.80;99.90;;;;;;5135892;27;20206;-66
2022/08/29 13:23:44;;;;;;;0.57;0.57;;;27.20;99.90;;;;;;5135242;27;20202;-66
2022/08/29 13:26:33;;;;;;;0.55;0.55;;;27.90;99.90;;;;;;5135024;27;20215;-65
2022/08/29 13:29:27;;;;;;;2.15;1.30;;;28.50;99.90;;;;;;5134285;27;20195;-64
2022/08/29 13:32:22;;;;;;;0.40;0.40;;;28.60;99.90;;;;;;5133566;27;20201;-64
2022/08/29 13:35:18;;;;;;;0.50;0.50;;;28.70;99.90;;;;;;5132307;27;20207;-64
2022/08/29 13:38:17;;;;;;;0.40;0.40;;;29.70;99.90;;;;;;5132149;27;20223;-64
2022/08/29 13:41:06;;;;;;;0.60;0.50;;;30.40;99.90;;;;;;5130390;27;20236;-64
2022/08/29 13:43:55;;;;;;;0.40;0.40;;;31.50;99.90;;;;;;5132769;27;20195;-64
2022/08/29 13:46:45;;;;;;;0.40;0.40;;;31.90;99.00;;;;;;5130697;27;20706;-64
2022/08/29 13:49:35;;;;;;;0.70;0.70;;;32.60;96.00;;;;;;5133027;27;20590;-64
2022/08/29 13:52:23;;;;;;;1.70;0.98;;;33.10;93.30;;;;;;5133770;27;20205;-64
2022/08/29 13:55:19;;;;;;;2.20;1.20;;;33.70;91.30;;;;;;5133316;27;20191;-64
2022/08/29 13:58:11;;;;;;;0.50;0.50;;;33.70;89.60;;;;;;5132077;27;20248;-63
2022/08/29 14:00:59;;;;;;;0.40;0.40;;;32.70;90.50;;;;;;5131695;27;20687;-64
2022/08/29 14:03:47;;;;;;;0.47;0.47;;;32.70;90.20;;;;;;5134649;27;20607;-63
2022/08/29 14:06:36;;;;;;;0.40;0.40;;;33.20;88.00;;;;;;5133837;27;20210;-63
2022/08/29 14:09:31;;;;;;;0.50;0.50;;;34.00;85.40;;;;;;5133686;27;20777;-64
2022/08/29 14:12:20;;;;;;;1.90;1.80;;;34.10;82.00;;;;;;5134425;27;20574;-64
2022/08/29 14:15:22;;;;;;;0.90;0.90;;;32.30;83.60;;;;;;5133129;27;20262;-64
2022/08/29 14:18:10;;;;;;;0.40;0.40;;;30.70;87.40;;;;;;5130954;27;20791;-63
2022/08/29 14:20:58;;;;;;;0.57;0.57;;;30.50;89.30;;;;;;5131370;27;20578;-63
2022/08/29 14:23:47;;;;;;;0.40;0.40;;;31.00;87.60;;;;;;5133171;27;20274;-63
2022/08/29 14:26:35;;;;;;;0.40;0.40;;;30.70;88.60;;;;;;5133167;27;20226;-63
2022/08/29 14:29:23;;;;;;;0.55;0.55;;;31.00;88.80;;;;;;5133281;27;20195;-63
2022/08/29 14:32:18;;;;;;;0.65;0.65;;;30.90;87.90;;;;;;5133107;27;20209;-63
2022/08/29 14:35:08;;;;;;;0.43;0.43;;;30.30;88.30;;;;;;5132037;27;20251;-63
2022/08/29 14:37:56;;;;;;;0.40;0.40;;;29.90;88.70;;;;;;5133429;27;20210;-63
2022/08/29 14:40:45;;;;;;;0.40;0.40;;;29.00;90.30;;;;;;5131632;27;20747;-64
2022/08/29 14:43:33;;;;;;;4.68;1.02;;;28.00;91.70;;;;;;5133051;27;20226;-66
2022/08/29 14:46:27;;;;;;;0.40;0.40;;;27.20;92.20;;;;;;5132286;27;20212;-66
2022/08/29 14:49:17;;;;;;;0.50;0.50;;;26.80;93.60;;;;;;5130991;27;20310;-65
2022/08/29 14:52:05;;;;;;;0.40;0.40;;;26.80;94.00;;;;;;5131975;27;20186;-63
2022/08/29 14:54:53;;;;;;;0.70;0.70;;;26.90;93.90;;;;;;5132473;27;20205;-66
2022/08/29 14:57:42;;;;;;;0.80;0.80;;;26.90;93.60;;;;;;5131913;27;20233;-64